createdAt,value
2022-11-03T00:00:46.877Z,23.33
2022-11-03T00:03:09.765Z,19.58
2022-11-03T00:05:51.011Z,22.33
2022-11-03T00:08:13.696Z,23.45
2022-11-03T00:10:36.322Z,21.95
2022-11-03T00:12:58.980Z,27.10
2022-11-03T00:15:21.689Z,25.02
2022-11-03T00:17:46.620Z,23.90
2022-11-03T00:20:10.243Z,24.02
2022-11-03T00:22:33.870Z,24.65
2022-11-03T00:24:56.557Z,24.30
2022-11-03T00:27:19.209Z,24.35
2022-11-03T00:29:42.099Z,25.17
2022-11-03T00:32:04.989Z,25.13
2022-11-03T00:34:27.544Z,25.42
2022-11-03T00:36:50.774Z,25.95
2022-11-03T00:39:13.424Z,24.05
2022-11-03T00:41:36.299Z,23.33
2022-11-03T00:43:58.815Z,22.15
2022-11-03T00:46:22.705Z,22.35
2022-11-03T00:48:45.543Z,21.17
2022-11-03T00:51:09.763Z,20.57
2022-11-03T00:53:37.790Z,24.60
2022-11-03T00:56:01.285Z,20.02
2022-11-03T00:58:23.993Z,19.83
2022-11-03T01:00:46.704Z,22.38
2022-11-03T01:03:09.445Z,21.55
2022-11-03T01:05:51.147Z,21.65
2022-11-03T01:08:13.707Z,22.25
2022-11-03T01:10:37.515Z,25.70
2022-11-03T01:13:00.090Z,22.70
2022-11-03T01:15:22.618Z,23.45
2022-11-03T01:17:45.111Z,22.52
2022-11-03T01:20:08.419Z,24.02
2022-11-03T01:22:31.089Z,22.75
2022-11-03T01:24:53.820Z,23.05
2022-11-03T01:27:18.595Z,23.65
2022-11-03T01:29:41.857Z,21.42
2022-11-03T01:32:04.685Z,22.67
2022-11-03T01:34:27.206Z,24.10
2022-11-03T01:36:49.878Z,23.15
2022-11-03T01:39:14.556Z,24.35
2022-11-03T01:41:37.227Z,21.70
2022-11-03T01:44:08.565Z,22.30
2022-11-03T01:46:31.257Z,22.52
2022-11-03T01:49:04.570Z,21.80
2022-11-03T01:51:30.723Z,21.77
2022-11-03T01:53:56.648Z,20.35
2022-11-03T01:56:20.814Z,21.80
2022-11-03T01:58:49.341Z,22.02
2022-11-03T02:01:12.743Z,23.65
2022-11-03T02:03:40.867Z,23.55
2022-11-03T02:06:05.447Z,24.77
2022-11-03T02:08:36.676Z,23.13
2022-11-03T02:10:59.369Z,22.67
2022-11-03T02:13:25.655Z,24.05
2022-11-03T02:15:51.498Z,25.93
2022-11-03T02:18:16.214Z,22.23
2022-11-03T02:20:40.185Z,23.10
2022-11-03T02:23:21.938Z,21.08
2022-11-03T02:25:50.017Z,26.17
2022-11-03T02:28:15.900Z,25.77
2022-11-03T02:30:44.160Z,23.75
2022-11-03T02:33:28.243Z,23.42
2022-11-03T02:35:57.737Z,25.45
2022-11-03T02:38:21.829Z,26.98
2022-11-03T02:40:52.888Z,26.65
2022-11-03T02:43:17.382Z,25.13
2022-11-03T02:45:40.108Z,26.40
2022-11-03T02:48:04.685Z,25.00
2022-11-03T02:50:29.693Z,22.38
2022-11-03T02:52:52.709Z,25.45
2022-11-03T02:55:36.779Z,26.67
2022-11-03T02:58:11.473Z,27.35
2022-11-03T03:00:43.988Z,22.75
2022-11-03T03:03:10.222Z,29.67
2022-11-03T03:05:35.889Z,24.02
2022-11-03T03:08:06.485Z,25.92
2022-11-03T03:10:33.651Z,29.23
2022-11-03T03:12:58.798Z,27.38
2022-11-03T03:16:07.808Z,28.80
2022-11-03T03:18:49.615Z,26.73
2022-11-03T03:21:34.988Z,28.48
2022-11-03T03:24:01.196Z,26.73
2022-11-03T03:26:31.103Z,27.13
2022-11-03T03:29:02.062Z,24.45
2022-11-03T03:31:27.152Z,27.15
2022-11-03T03:33:59.681Z,26.27
2022-11-03T03:36:29.887Z,26.45
2022-11-03T03:38:58.988Z,25.52
2022-11-03T03:41:23.628Z,26.60
2022-11-03T03:43:46.603Z,28.17
2022-11-03T03:46:11.895Z,26.52
2022-11-03T03:48:34.783Z,24.20
2022-11-03T03:50:58.970Z,26.48
2022-11-03T03:53:21.399Z,26.52
2022-11-03T03:55:46.624Z,29.67
2022-11-03T03:58:12.909Z,30.25
2022-11-03T04:00:35.570Z,28.98
2022-11-03T04:02:58.904Z,28.23
2022-11-03T04:05:21.569Z,33.67
2022-11-03T04:07:49.806Z,27.92
2022-11-03T04:10:12.418Z,31.48
2022-11-03T04:12:53.544Z,31.73
2022-11-03T04:15:35.008Z,32.97
2022-11-03T04:18:16.419Z,28.90
2022-11-03T04:20:57.350Z,30.20
2022-11-03T04:23:20.151Z,31.80
2022-11-03T04:25:56.457Z,35.90
2022-11-03T04:28:41.059Z,39.53
2022-11-03T04:31:13.389Z,37.03
2022-11-03T04:33:36.075Z,38.07
2022-11-03T04:35:59.579Z,35.10
2022-11-03T04:38:23.691Z,41.13
2022-11-03T04:40:54.863Z,38.03
2022-11-03T04:43:19.378Z,40.17
2022-11-03T04:45:44.915Z,37.28
2022-11-03T04:48:13.136Z,33.22
2022-11-03T04:50:35.756Z,31.00
2022-11-03T04:52:59.149Z,31.90
2022-11-03T04:55:22.333Z,34.40
2022-11-03T04:57:45.257Z,31.60
2022-11-03T05:00:17.932Z,32.67
2022-11-03T05:02:40.627Z,30.73
2022-11-03T05:05:14.650Z,32.80
2022-11-03T05:07:37.229Z,30.33
2022-11-03T05:10:00.896Z,36.53
2022-11-03T05:12:23.577Z,34.95
2022-11-03T05:14:46.597Z,37.35
2022-11-03T05:17:28.868Z,38.90
2022-11-03T05:20:00.141Z,32.63
2022-11-03T05:22:24.355Z,34.20
2022-11-03T05:24:46.949Z,36.25
2022-11-03T05:27:16.433Z,35.17
2022-11-03T05:29:39.899Z,36.63
2022-11-03T05:32:11.506Z,32.63
2022-11-03T05:34:46.294Z,34.07
2022-11-03T05:37:26.819Z,36.13
2022-11-03T05:39:51.020Z,36.58
2022-11-03T05:42:22.270Z,39.50
2022-11-03T05:44:45.601Z,38.30
2022-11-03T05:47:37.487Z,41.97
2022-11-03T05:50:11.052Z,36.38
2022-11-03T05:52:34.547Z,39.00
2022-11-03T05:54:59.365Z,33.97
2022-11-03T05:57:22.041Z,35.65
2022-11-03T05:59:47.326Z,32.90
2022-11-03T06:02:41.708Z,35.65
2022-11-03T06:05:19.063Z,37.13
2022-11-03T06:07:41.727Z,34.10
2022-11-03T06:10:21.267Z,36.17
2022-11-03T06:12:43.890Z,34.75
2022-11-03T06:15:22.115Z,29.98
2022-11-03T06:17:44.785Z,24.17
2022-11-03T06:20:16.835Z,25.30
2022-11-03T06:22:39.407Z,28.52
2022-11-03T06:25:21.095Z,23.95
2022-11-03T06:27:43.922Z,20.67
2022-11-03T06:30:34.221Z,22.33
2022-11-03T06:33:02.061Z,21.65
2022-11-03T06:35:25.573Z,23.65
2022-11-03T06:37:48.303Z,19.50
2022-11-03T06:40:11.155Z,21.83
2022-11-03T06:42:34.242Z,20.30
2022-11-03T06:44:56.959Z,20.42
2022-11-03T06:47:25.492Z,15.02
2022-11-03T06:49:54.104Z,16.30
2022-11-03T06:52:26.150Z,17.88
2022-11-03T06:54:51.500Z,16.90
2022-11-03T06:57:14.734Z,18.20
2022-11-03T06:59:37.631Z,19.27
2022-11-03T07:02:00.908Z,14.65
2022-11-03T07:04:29.945Z,16.48
2022-11-03T07:06:53.779Z,17.52
2022-11-03T07:09:22.427Z,14.07
2022-11-03T07:11:50.151Z,16.40
2022-11-03T07:14:16.510Z,14.80
2022-11-03T07:16:45.167Z,15.48
2022-11-03T07:19:26.637Z,16.75
2022-11-03T07:22:04.752Z,16.42
2022-11-03T07:24:31.415Z,15.77
2022-11-03T07:27:36.670Z,17.58
2022-11-03T07:30:08.358Z,17.50
2022-11-03T07:32:34.153Z,18.13
2022-11-03T07:35:46.969Z,15.15
2022-11-03T07:38:18.052Z,17.92
2022-11-03T07:40:41.006Z,20.60
2022-11-03T07:43:38.978Z,19.20
2022-11-03T07:46:03.877Z,21.52
2022-11-03T07:48:33.827Z,21.20
2022-11-03T07:50:59.384Z,21.33
2022-11-03T07:53:30.892Z,22.80
2022-11-03T07:55:56.530Z,25.60
2022-11-03T07:58:23.460Z,23.63
2022-11-03T08:00:47.462Z,25.05
2022-11-03T08:03:28.634Z,23.33
2022-11-03T08:05:51.421Z,24.15
2022-11-03T08:08:14.030Z,27.02
2022-11-03T08:10:37.053Z,27.27
2022-11-03T08:12:59.606Z,28.08
2022-11-03T08:15:22.170Z,35.75
2022-11-03T08:17:45.112Z,27.93
2022-11-03T08:20:08.112Z,42.63
2022-11-03T08:22:30.908Z,31.67
2022-11-03T08:24:53.592Z,31.00
2022-11-03T08:27:16.236Z,34.78
2022-11-03T08:29:39.084Z,33.95
2022-11-03T08:32:01.578Z,37.63
2022-11-03T08:34:25.097Z,35.80
2022-11-03T08:36:47.988Z,36.80
2022-11-03T08:39:10.765Z,37.35
2022-11-03T08:41:33.988Z,38.80
2022-11-03T08:43:56.709Z,39.30
2022-11-03T08:46:19.275Z,36.50
2022-11-03T08:48:41.961Z,35.03
2022-11-03T08:51:05.135Z,34.88
2022-11-03T08:53:28.012Z,37.30
2022-11-03T08:55:50.829Z,36.75
2022-11-03T08:58:13.952Z,41.60
2022-11-03T09:00:40.695Z,37.30
2022-11-03T09:03:04.046Z,39.22
2022-11-03T09:05:26.818Z,40.33
2022-11-03T09:10:35.698Z,36.95
2022-11-03T09:13:03.530Z,40.03
2022-11-03T09:15:26.507Z,38.25
2022-11-03T09:17:49.501Z,40.45
2022-11-03T09:20:14.748Z,44.38
2022-11-03T09:22:37.329Z,43.58
2022-11-03T09:24:59.915Z,36.15
2022-11-03T09:27:22.684Z,40.85
2022-11-03T09:30:11.631Z,37.15
2022-11-03T09:32:29.019Z,34.58
2022-11-03T09:34:51.958Z,38.63
2022-11-03T09:37:14.823Z,36.35
2022-11-03T09:39:37.631Z,40.78
2022-11-03T09:42:00.746Z,42.13
2022-11-03T09:44:24.425Z,41.20
2022-11-03T09:46:48.206Z,38.78
2022-11-03T09:49:15.439Z,41.33
2022-11-03T09:51:38.262Z,38.40
2022-11-03T09:54:04.182Z,43.05
2022-11-03T09:56:27.380Z,39.03
2022-11-03T09:58:54.225Z,40.97
2022-11-03T10:01:17.963Z,37.95
2022-11-03T10:03:42.443Z,41.40
2022-11-03T10:06:10.961Z,42.42
2022-11-03T10:08:39.947Z,46.80
2022-11-03T10:11:06.375Z,43.97
2022-11-03T10:13:36.470Z,42.72
2022-11-03T10:16:01.391Z,40.03
2022-11-03T10:18:24.620Z,40.40
2022-11-03T10:20:47.463Z,38.60
2022-11-03T10:23:10.265Z,41.80
2022-11-03T10:25:40.444Z,45.70
2022-11-03T10:28:25.370Z,42.28
2022-11-03T10:31:09.988Z,45.58
2022-11-03T10:33:33.737Z,44.05
2022-11-03T10:35:58.834Z,43.60
2022-11-03T10:38:33.221Z,47.92
2022-11-03T10:40:55.953Z,49.83
2022-11-03T10:43:18.652Z,43.45
2022-11-03T10:45:41.430Z,47.33
2022-11-03T10:48:08.279Z,48.97
2022-11-03T10:50:30.988Z,47.42
2022-11-03T10:52:54.582Z,51.30
2022-11-03T10:55:22.226Z,55.83
2022-11-03T10:57:52.829Z,50.78
2022-11-03T11:00:17.723Z,55.22
2022-11-03T11:02:42.848Z,46.45
2022-11-03T11:05:15.082Z,49.30
2022-11-03T11:07:43.104Z,47.47
2022-11-03T11:10:07.989Z,46.00
2022-11-03T11:12:30.933Z,39.78
2022-11-03T11:14:55.412Z,37.30
2022-11-03T11:17:42.180Z,39.00
2022-11-03T11:20:21.504Z,40.45
2022-11-03T11:22:45.146Z,37.55
2022-11-03T11:25:07.924Z,40.55
2022-11-03T11:27:33.031Z,39.00
2022-11-03T11:29:55.857Z,40.28
2022-11-03T11:32:37.166Z,45.88
2022-11-03T11:35:00.166Z,46.60
2022-11-03T11:37:23.016Z,47.08
2022-11-03T11:39:45.732Z,47.20
2022-11-03T11:42:14.198Z,41.80
2022-11-03T11:44:39.749Z,45.00
2022-11-03T11:47:02.339Z,44.17
2022-11-03T11:49:26.414Z,46.20
2022-11-03T11:51:49.194Z,42.47
2022-11-03T11:54:18.395Z,47.28
2022-11-03T11:56:43.953Z,48.95
2022-11-03T11:59:20.182Z,50.70
2022-11-03T12:01:52.286Z,45.03
2022-11-03T12:04:20.546Z,43.92
2022-11-03T12:09:20.657Z,46.97
2022-11-03T12:11:55.497Z,44.85
2022-11-03T12:14:39.037Z,46.17
2022-11-03T12:17:14.690Z,46.67
2022-11-03T12:19:46.833Z,44.85
2022-11-03T12:22:11.100Z,41.95
2022-11-03T12:24:33.812Z,41.42
2022-11-03T12:26:57.241Z,46.25
2022-11-03T12:29:19.922Z,45.65
2022-11-03T12:31:42.570Z,42.55
2022-11-03T12:34:05.183Z,47.03
2022-11-03T12:36:28.061Z,44.42
2022-11-03T12:38:51.187Z,43.55
2022-11-03T12:41:24.654Z,44.92
2022-11-03T12:43:52.080Z,47.97
2022-11-03T12:46:16.663Z,43.45
2022-11-03T12:48:44.089Z,46.10
2022-11-03T12:51:07.193Z,41.92
2022-11-03T12:53:30.074Z,41.83
2022-11-03T12:55:53.172Z,38.67
2022-11-03T12:58:16.464Z,44.42
2022-11-03T13:00:39.525Z,40.92
2022-11-03T13:03:02.579Z,45.85
2022-11-03T13:05:25.926Z,46.25
2022-11-03T13:07:49.021Z,42.15
2022-11-03T13:10:11.598Z,43.65
2022-11-03T13:12:35.366Z,44.28
2022-11-03T13:14:59.499Z,43.88
2022-11-03T13:17:22.201Z,45.97
2022-11-03T13:19:46.471Z,46.17
2022-11-03T13:22:09.171Z,47.05
2022-11-03T13:24:31.897Z,45.97
2022-11-03T13:26:54.523Z,44.83
2022-11-03T13:29:17.138Z,47.03
2022-11-03T13:31:39.879Z,45.40
2022-11-03T13:34:02.829Z,49.42
2022-11-03T13:36:25.532Z,47.67
2022-11-03T13:38:48.545Z,45.50
2022-11-03T13:41:11.479Z,42.75
2022-11-03T13:43:34.288Z,46.13
2022-11-03T13:46:02.543Z,43.55
2022-11-03T13:51:12.101Z,46.95
2022-11-03T13:56:23.423Z,46.88
2022-11-03T14:01:29.540Z,52.00
2022-11-03T14:06:35.810Z,51.50
2022-11-03T14:09:00.534Z,52.15
2022-11-03T14:11:42.020Z,44.95
2022-11-03T14:14:05.149Z,48.22
2022-11-03T14:16:27.967Z,50.50
2022-11-03T14:18:50.903Z,48.22
2022-11-03T14:21:13.543Z,49.58
2022-11-03T14:23:36.188Z,53.90
2022-11-03T14:26:13.085Z,47.38
2022-11-03T14:28:41.434Z,46.72
2022-11-03T14:31:05.581Z,45.13
2022-11-03T14:33:28.270Z,51.10
2022-11-03T14:35:50.871Z,43.45
2022-11-03T14:38:13.525Z,46.53
2022-11-03T14:40:54.613Z,47.08
2022-11-03T14:43:17.471Z,46.25
2022-11-03T14:45:42.566Z,46.90
2022-11-03T14:48:06.352Z,50.10
2022-11-03T14:50:29.407Z,50.97
2022-11-03T14:52:54.950Z,50.83
2022-11-03T14:55:19.832Z,56.05
2022-11-03T14:57:42.772Z,48.65
2022-11-03T15:00:06.019Z,47.97
2022-11-03T15:02:28.820Z,51.00
2022-11-03T15:04:51.521Z,48.78
2022-11-03T15:07:14.164Z,49.33
2022-11-03T15:09:58.359Z,48.75
2022-11-03T15:12:21.091Z,47.83
2022-11-03T15:14:43.575Z,50.67
2022-11-03T15:17:06.155Z,47.33
2022-11-03T15:19:28.931Z,51.30
2022-11-03T15:21:51.506Z,52.70
2022-11-03T15:26:56.484Z,52.13
2022-11-03T15:29:19.138Z,53.80
2022-11-03T15:31:47.252Z,52.35
2022-11-03T15:34:10.876Z,52.08
2022-11-03T15:36:33.498Z,52.35
2022-11-03T15:38:55.925Z,45.25
2022-11-03T15:41:19.559Z,43.60
2022-11-03T15:43:47.833Z,40.70
2022-11-03T15:46:10.933Z,40.03
2022-11-03T15:48:34.650Z,44.05
2022-11-03T15:50:57.561Z,44.25
2022-11-03T15:53:20.159Z,48.47
2022-11-03T15:55:42.804Z,54.58
2022-11-03T15:58:05.980Z,53.78
2022-11-03T16:00:28.794Z,54.30
2022-11-03T16:02:51.846Z,57.88
2022-11-03T16:05:14.964Z,60.92
2022-11-03T16:07:37.562Z,58.33
2022-11-03T16:10:00.416Z,62.17
2022-11-03T16:12:24.334Z,53.80
2022-11-03T16:14:46.906Z,60.30
2022-11-03T16:17:09.427Z,57.10
2022-11-03T16:19:32.043Z,57.35
2022-11-03T16:21:54.542Z,61.92
2022-11-03T16:24:17.507Z,59.08
2022-11-03T16:26:40.150Z,54.63
2022-11-03T16:29:02.746Z,52.53
2022-11-03T16:31:25.407Z,55.25
2022-11-03T16:33:48.028Z,52.83
2022-11-03T16:36:10.568Z,49.60
2022-11-03T16:38:33.398Z,49.25
2022-11-03T16:40:56.673Z,52.40
2022-11-03T16:43:19.315Z,48.00
2022-11-03T16:45:42.027Z,48.65
2022-11-03T16:48:06.520Z,50.10
2022-11-03T16:50:29.783Z,48.88
2022-11-03T16:52:52.561Z,48.72
2022-11-03T16:55:17.035Z,51.10
2022-11-03T16:57:39.742Z,50.83
2022-11-03T17:00:02.879Z,45.37
2022-11-03T17:02:28.257Z,47.13
2022-11-03T17:04:50.838Z,51.00
2022-11-03T17:07:13.431Z,52.30
2022-11-03T17:09:36.052Z,50.42
2022-11-03T17:11:58.816Z,56.63
2022-11-03T17:14:21.308Z,54.17
2022-11-03T17:16:46.728Z,55.03
2022-11-03T17:19:09.479Z,47.55
2022-11-03T17:21:32.074Z,52.75
2022-11-03T17:24:00.234Z,53.22
2022-11-03T17:26:30.626Z,54.53
2022-11-03T17:28:54.377Z,58.72
2022-11-03T17:31:17.071Z,51.30
2022-11-03T17:33:39.879Z,53.38
2022-11-03T17:36:02.537Z,54.92
2022-11-03T17:38:25.709Z,54.15
2022-11-03T17:40:52.248Z,53.45
2022-11-03T17:43:27.292Z,54.05
2022-11-03T17:45:50.742Z,60.38
2022-11-03T17:48:13.778Z,61.70
2022-11-03T17:50:36.447Z,61.17
2022-11-03T17:52:59.232Z,63.50
2022-11-03T17:55:32.668Z,61.25
2022-11-03T17:57:57.737Z,58.75
2022-11-03T18:00:21.215Z,55.87
2022-11-03T18:02:45.013Z,55.55
2022-11-03T18:05:40.277Z,62.55
2022-11-03T18:08:08.269Z,61.08
2022-11-03T18:10:38.124Z,62.33
2022-11-03T18:13:28.904Z,62.95
2022-11-03T18:16:11.953Z,60.72
2022-11-03T18:18:37.751Z,64.95
2022-11-03T18:21:00.849Z,64.30
2022-11-03T18:23:30.844Z,67.30
2022-11-03T18:25:54.158Z,75.23
2022-11-03T18:28:17.892Z,66.72
2022-11-03T18:30:41.958Z,66.30
2022-11-03T18:33:05.516Z,69.75
2022-11-03T18:35:31.818Z,71.15
2022-11-03T18:37:56.353Z,71.10
2022-11-03T18:40:20.366Z,71.32
2022-11-03T18:42:43.182Z,68.75
2022-11-03T18:45:14.425Z,69.55
2022-11-03T18:47:37.466Z,69.07
2022-11-03T18:50:00.232Z,66.47
2022-11-03T18:52:22.930Z,68.60
2022-11-03T18:54:47.633Z,67.07
2022-11-03T18:57:11.762Z,67.25
2022-11-03T18:59:37.732Z,65.55
2022-11-03T19:02:00.889Z,74.77
2022-11-03T19:04:24.118Z,70.32
2022-11-03T19:06:48.605Z,66.05
2022-11-03T19:09:19.602Z,69.93
2022-11-03T19:11:43.995Z,67.82
2022-11-03T19:14:10.904Z,65.07
2022-11-03T19:16:34.130Z,68.97
2022-11-03T19:18:57.022Z,70.35
2022-11-03T19:21:24.354Z,71.30
2022-11-03T19:23:49.054Z,69.32
2022-11-03T19:26:33.740Z,71.03
2022-11-03T19:29:00.082Z,65.07
2022-11-03T19:31:38.528Z,68.22
2022-11-03T19:34:02.507Z,69.85
2022-11-03T19:36:27.830Z,65.70
2022-11-03T19:38:50.765Z,66.38
2022-11-03T19:41:35.083Z,65.63
2022-11-03T19:43:57.966Z,69.25
2022-11-03T19:46:20.613Z,61.85
2022-11-03T19:48:44.006Z,63.55
2022-11-03T19:51:07.442Z,67.03
2022-11-03T19:53:31.051Z,68.03
2022-11-03T19:55:54.994Z,60.80
2022-11-03T19:58:21.288Z,66.88
2022-11-03T20:00:45.203Z,65.88
2022-11-03T20:03:08.959Z,66.68
2022-11-03T20:05:31.761Z,63.35
2022-11-03T20:07:55.407Z,71.82
2022-11-03T20:10:19.630Z,68.15
2022-11-03T20:12:42.878Z,58.92
2022-11-03T20:15:23.819Z,64.60
2022-11-03T20:17:48.246Z,64.82
2022-11-03T20:20:18.691Z,64.70
2022-11-03T20:22:44.946Z,62.42
2022-11-03T20:25:12.245Z,60.83
2022-11-03T20:27:36.635Z,70.53
2022-11-03T20:29:59.414Z,63.47
2022-11-03T20:32:22.951Z,69.50
2022-11-03T20:34:46.687Z,63.70
2022-11-03T20:37:20.020Z,63.50
2022-11-03T20:39:43.336Z,58.37
2022-11-03T20:42:06.009Z,63.53
2022-11-03T20:44:28.815Z,61.95
2022-11-03T20:46:51.364Z,57.28
2022-11-03T20:49:14.192Z,53.75
2022-11-03T20:51:43.123Z,56.60
2022-11-03T20:54:20.698Z,55.75
2022-11-03T20:56:44.391Z,53.78
2022-11-03T20:59:10.240Z,49.55
2022-11-03T21:01:34.076Z,46.40
2022-11-03T21:04:00.235Z,50.47
2022-11-03T21:06:23.176Z,53.33
2022-11-03T21:08:46.995Z,50.38
2022-11-03T21:11:29.396Z,47.92
2022-11-03T21:13:54.424Z,50.20
2022-11-03T21:16:37.243Z,52.78
2022-11-03T21:19:18.934Z,45.70
2022-11-03T21:21:41.816Z,48.67
2022-11-03T21:24:04.712Z,44.08
2022-11-03T21:26:27.323Z,46.55
2022-11-03T21:28:50.255Z,46.90
2022-11-03T21:31:14.147Z,45.47
2022-11-03T21:33:37.250Z,49.70
2022-11-03T21:36:00.886Z,45.83
2022-11-03T21:38:23.313Z,46.20
2022-11-03T21:40:56.188Z,42.77
2022-11-03T21:43:37.571Z,43.05
2022-11-03T21:46:04.398Z,38.28
2022-11-03T21:48:45.578Z,45.92
2022-11-03T21:51:08.649Z,45.72
2022-11-03T21:53:31.276Z,43.40
2022-11-03T21:55:53.795Z,41.88
2022-11-03T21:58:16.609Z,42.22
2022-11-03T22:00:39.404Z,43.70
2022-11-03T22:03:01.867Z,44.72
2022-11-03T22:05:24.390Z,42.88
2022-11-03T22:07:47.102Z,46.30
2022-11-03T22:10:09.833Z,47.78
2022-11-03T22:12:32.446Z,38.47
2022-11-03T22:15:13.699Z,40.80
2022-11-03T22:17:36.291Z,45.63
2022-11-03T22:20:17.480Z,43.38
2022-11-03T22:22:58.555Z,41.65
2022-11-03T22:25:39.543Z,46.72
2022-11-03T22:28:02.291Z,43.35
2022-11-03T22:30:43.674Z,45.85
2022-11-03T22:33:06.197Z,42.75
2022-11-03T22:35:47.445Z,43.35
2022-11-03T22:38:12.853Z,40.38
2022-11-03T22:40:55.293Z,41.50
2022-11-03T22:43:36.673Z,43.78
2022-11-03T22:45:59.295Z,40.83
2022-11-03T22:48:23.484Z,44.50
2022-11-03T22:50:46.557Z,42.63
2022-11-03T22:53:28.990Z,39.58
2022-11-03T22:55:52.547Z,43.10
2022-11-03T22:58:15.394Z,38.55
2022-11-03T23:00:39.523Z,42.70
2022-11-03T23:03:01.967Z,39.65
2022-11-03T23:05:24.522Z,42.25
2022-11-03T23:07:46.942Z,39.77
2022-11-03T23:10:09.587Z,38.83
2022-11-03T23:12:32.458Z,41.63
2022-11-03T23:15:13.407Z,40.85
2022-11-03T23:17:54.641Z,41.42
2022-11-03T23:20:50.481Z,42.60
2022-11-03T23:23:32.972Z,45.45
2022-11-03T23:25:55.631Z,41.20
2022-11-03T23:28:18.124Z,42.55
2022-11-03T23:30:44.262Z,39.95
2022-11-03T23:33:06.933Z,41.40
2022-11-03T23:35:29.706Z,36.83
2022-11-03T23:37:52.351Z,37.75
2022-11-03T23:40:17.355Z,35.72
2022-11-03T23:42:43.041Z,40.10
2022-11-03T23:45:24.344Z,39.63
2022-11-03T23:48:06.056Z,35.38
2022-11-03T23:50:28.927Z,39.13
2022-11-03T23:52:51.495Z,39.65
2022-11-03T23:55:14.308Z,35.38
